Time;durP1;ratioP1;P1;durP2;ratioP2;P2;SDS_P1;SDS_P2;PMS_P1;PMS_P2;Temp;Humidity;BMP_temperature;BMP_pressure;BME280_temperature;BME280_humidity;BME280_pressure;Samples;Min_cycle;Max_cycle;Signal;HPM_P1;HPM_P2
2022/05/08 00:01:00;;;;;;;4.10;1.52;;;14.40;62.20;;;;;;6333696;22;19995;-67
2022/05/08 00:03:27;;;;;;;1.38;1.27;;;14.40;62.00;;;;;;6306245;22;20010;-68
2022/05/08 00:05:54;;;;;;;2.13;1.15;;;14.40;61.90;;;;;;6305347;22;20019;-66
2022/05/08 00:08:22;;;;;;;3.30;1.30;;;14.50;62.50;;;;;;6333754;22;20056;-69
2022/05/08 00:10:49;;;;;;;4.07;1.40;;;14.50;63.50;;;;;;6332757;22;20006;-69
2022/05/08 00:13:16;;;;;;;2.88;1.00;;;14.50;62.80;;;;;;6333150;22;20318;-69
2022/05/08 00:15:43;;;;;;;2.30;1.10;;;14.60;62.90;;;;;;6333017;22;20007;-68
2022/05/08 00:18:10;;;;;;;4.43;1.13;;;14.60;62.30;;;;;;6306147;22;19999;-66
2022/05/08 00:20:37;;;;;;;2.90;1.30;;;14.70;62.10;;;;;;6330408;22;20419;-68
2022/05/08 00:23:05;;;;;;;3.38;1.50;;;14.70;62.30;;;;;;6305379;22;20007;-70
2022/05/08 00:25:32;;;;;;;3.63;1.30;;;14.70;61.40;;;;;;6333513;22;20011;-69
2022/05/08 00:28:00;;;;;;;2.65;1.33;;;14.80;61.80;;;;;;6306519;22;20003;-79
2022/05/08 00:30:27;;;;;;;3.75;1.40;;;14.80;62.20;;;;;;6280480;22;19999;-69
2022/05/08 00:32:54;;;;;;;4.63;1.95;;;14.80;62.20;;;;;;6280192;22;20429;-68
2022/05/08 00:35:21;;;;;;;10.02;2.60;;;14.90;62.40;;;;;;6280175;22;20007;-71
2022/05/08 00:37:49;;;;;;;4.32;2.28;;;15.00;62.40;;;;;;6333151;22;20410;-69
2022/05/08 00:40:16;;;;;;;5.18;1.52;;;15.00;62.40;;;;;;6306127;22;20025;-69
2022/05/08 00:42:43;;;;;;;2.63;1.10;;;15.00;61.70;;;;;;6333482;22;20329;-70
2022/05/08 00:45:11;;;;;;;1.83;1.00;;;15.10;61.10;;;;;;6279058;22;20017;-69
2022/05/08 00:47:38;;;;;;;2.53;1.27;;;15.10;61.00;;;;;;6305604;22;20002;-69
2022/05/08 00:50:05;;;;;;;1.75;1.20;;;15.10;61.20;;;;;;6306166;22;20010;-70
2022/05/08 00:52:34;;;;;;;4.70;1.42;;;15.20;61.50;;;;;;6280772;22;20433;-70
2022/05/08 00:55:02;;;;;;;1.70;1.30;;;15.20;62.70;;;;;;6305499;22;20559;-72
2022/05/08 00:57:30;;;;;;;1.85;1.02;;;15.20;61.50;;;;;;6280504;22;20069;-72
2022/05/08 00:59:57;;;;;;;1.40;1.00;;;15.30;60.90;;;;;;6306369;22;20086;-77
2022/05/08 01:02:25;;;;;;;2.17;1.25;;;15.30;61.40;;;;;;6280716;22;20010;-73
2022/05/08 01:04:52;;;;;;;4.07;1.17;;;15.30;61.40;;;;;;6332826;22;20026;-78
2022/05/08 01:07:21;;;;;;;2.75;1.08;;;15.30;61.10;;;;;;6305592;22;20030;-73
2022/05/08 01:09:49;;;;;;;2.70;1.10;;;15.30;60.20;;;;;;6281333;22;20027;-74
2022/05/08 01:12:16;;;;;;;1.90;1.00;;;15.30;59.60;;;;;;6279394;22;20025;-68
2022/05/08 01:14:43;;;;;;;6.63;1.27;;;15.40;59.40;;;;;;6305530;22;20408;-74
2022/05/08 01:17:10;;;;;;;8.10;1.63;;;15.50;59.20;;;;;;6333136;22;19999;-70
2022/05/08 01:19:37;;;;;;;1.83;1.08;;;15.50;59.60;;;;;;6332947;22;20060;-73
2022/05/08 01:22:05;;;;;;;4.97;1.20;;;15.50;60.20;;;;;;6303362;22;20034;-73
2022/05/08 01:24:32;;;;;;;1.88;1.30;;;15.60;60.10;;;;;;6279742;22;20015;-69
2022/05/08 01:26:59;;;;;;;2.38;1.17;;;15.60;58.90;;;;;;6254423;22;20010;-67
2022/05/08 01:29:26;;;;;;;3.05;1.20;;;15.70;58.90;;;;;;6333644;22;20064;-72
2022/05/08 01:31:53;;;;;;;5.13;1.90;;;15.70;58.50;;;;;;6305716;22;20214;-70
2022/05/08 01:34:20;;;;;;;1.58;1.00;;;15.70;58.90;;;;;;6332976;22;20396;-71
2022/05/08 01:36:48;;;;;;;3.03;0.82;;;15.70;58.60;;;;;;6332707;22;20454;-71
2022/05/08 01:39:15;;;;;;;2.00;1.00;;;15.70;58.30;;;;;;6332768;22;20082;-72
2022/05/08 01:41:42;;;;;;;3.17;1.38;;;15.70;58.10;;;;;;6305290;22;20007;-72
2022/05/08 01:44:09;;;;;;;0.82;0.70;;;15.70;58.90;;;;;;6305382;22;20038;-72
2022/05/08 01:46:36;;;;;;;1.40;0.70;;;15.80;58.30;;;;;;6305468;22;20520;-72
2022/05/08 01:49:03;;;;;;;3.72;0.65;;;15.80;58.90;;;;;;6335341;22;19998;-72
2022/05/08 01:51:30;;;;;;;5.78;0.93;;;15.70;59.10;;;;;;6306862;22;20006;-70
2022/05/08 01:53:58;;;;;;;1.33;0.90;;;15.80;57.80;;;;;;6305614;22;20030;-70
2022/05/08 01:56:25;;;;;;;3.25;1.00;;;15.80;58.80;;;;;;6332886;22;20003;-70
2022/05/08 01:58:52;;;;;;;5.15;0.77;;;15.90;58.20;;;;;;6332854;22;20078;-71
2022/05/08 02:01:20;;;;;;;2.25;0.80;;;15.80;57.20;;;;;;6332893;22;20436;-70
2022/05/08 02:03:47;;;;;;;3.40;1.08;;;15.90;57.40;;;;;;6304837;22;20068;-69
2022/05/08 02:06:18;;;;;;;1.40;0.82;;;15.90;57.90;;;;;;6305710;22;20595;-73
2022/05/08 02:08:45;;;;;;;0.63;0.60;;;15.80;58.20;;;;;;6282174;22;20006;-71
2022/05/08 02:11:12;;;;;;;2.88;0.80;;;15.90;58.40;;;;;;6281848;22;20348;-72
2022/05/08 02:13:39;;;;;;;1.70;0.68;;;16.00;57.40;;;;;;6307509;22;20513;-70
2022/05/08 02:16:07;;;;;;;2.15;0.90;;;16.00;57.40;;;;;;6307205;22;20053;-69
2022/05/08 02:18:34;;;;;;;2.67;1.13;;;16.00;57.00;;;;;;6307459;22;20098;-70
2022/05/08 02:21:01;;;;;;;2.47;1.23;;;16.00;56.60;;;;;;6307293;22;20428;-70
2022/05/08 02:23:28;;;;;;;1.60;0.60;;;16.00;57.50;;;;;;6331388;22;20124;-70
2022/05/08 02:25:57;;;;;;;2.08;0.90;;;16.00;57.90;;;;;;6333813;22;20034;-73
2022/05/08 02:28:24;;;;;;;1.58;0.80;;;16.10;58.20;;;;;;6306600;22;20052;-72
2022/05/08 02:30:51;;;;;;;2.35;1.08;;;16.10;58.40;;;;;;6334008;22;20524;-72
2022/05/08 02:33:18;;;;;;;11.18;1.17;;;16.10;57.80;;;;;;6334510;22;20003;-72
2022/05/08 02:35:45;;;;;;;3.85;0.77;;;16.10;59.40;;;;;;6333683;22;19999;-72
2022/05/08 02:38:12;;;;;;;8.93;3.72;;;16.20;56.90;;;;;;6281339;22;20003;-73
2022/05/08 02:40:39;;;;;;;16.33;3.67;;;16.30;57.80;;;;;;6306349;22;20007;-69
2022/05/08 02:43:07;;;;;;;2.47;1.00;;;16.30;58.70;;;;;;6281558;22;20003;-70
2022/05/08 02:45:34;;;;;;;1.67;0.85;;;16.30;58.40;;;;;;6334631;22;20011;-70
2022/05/08 02:48:01;;;;;;;4.15;1.17;;;16.30;57.80;;;;;;6307058;22;20030;-70
2022/05/08 02:50:28;;;;;;;2.13;0.88;;;16.20;57.40;;;;;;6282107;22;20074;-74
2022/05/08 02:52:55;;;;;;;6.68;1.05;;;16.30;59.50;;;;;;6334239;22;20453;-73
2022/05/08 03:00:53;;;;;;;2.88;0.90;;;16.30;58.00;;;;;;6334142;22;20021;-72
2022/05/08 03:03:20;;;;;;;3.22;0.82;;;16.40;58.30;;;;;;6333277;22;20021;-73
2022/05/08 03:05:47;;;;;;;2.30;1.05;;;16.40;56.90;;;;;;6333926;22;20019;-73
2022/05/08 03:08:15;;;;;;;5.30;1.10;;;16.40;57.70;;;;;;6281954;22;20030;-72
2022/05/08 03:13:27;;;;;;;2.33;0.73;;;16.50;57.40;;;;;;6334209;22;20094;-70
2022/05/08 03:15:55;;;;;;;3.75;1.10;;;16.50;57.90;;;;;;6333914;22;20378;-70
2022/05/08 03:18:22;;;;;;;4.28;1.10;;;16.60;56.90;;;;;;6306309;22;20025;-71
2022/05/08 03:20:49;;;;;;;1.35;0.80;;;16.60;58.10;;;;;;6280544;22;20025;-70
2022/05/08 03:23:17;;;;;;;3.10;0.95;;;16.70;58.60;;;;;;6304052;22;20034;-71
2022/05/08 03:25:44;;;;;;;3.83;0.85;;;16.60;57.10;;;;;;6332843;22;20010;-70
2022/05/08 03:28:15;;;;;;;1.80;0.90;;;16.70;58.10;;;;;;6304088;22;19999;-67
2022/05/08 03:30:46;;;;;;;3.25;1.00;;;16.60;58.80;;;;;;6282706;22;20038;-68
2022/05/08 03:33:12;;;;;;;;;;;16.60;59.10;;;;;;6281889;22;20324;-69
2022/05/08 03:35:40;;;;;;;1.50;0.63;;;16.60;58.90;;;;;;6306514;22;19934;-68
2022/05/08 03:38:08;;;;;;;1.67;0.90;;;16.60;57.80;;;;;;6333442;22;20007;-68
2022/05/08 03:40:35;;;;;;;2.15;0.73;;;16.60;58.00;;;;;;6280854;22;19998;-69
2022/05/08 03:43:03;;;;;;;3.13;0.90;;;16.70;58.30;;;;;;6278756;22;20383;-69
2022/05/08 03:45:30;;;;;;;2.50;0.73;;;16.60;59.00;;;;;;6276428;22;20093;-69
2022/05/08 03:47:59;;;;;;;1.90;0.77;;;16.70;57.20;;;;;;6276765;22;20437;-70
2022/05/08 03:50:27;;;;;;;1.52;0.77;;;16.70;56.80;;;;;;6277587;22;20400;-70
2022/05/08 03:52:54;;;;;;;1.95;0.70;;;16.70;56.80;;;;;;6301499;22;19999;-71
2022/05/08 03:55:21;;;;;;;1.00;0.70;;;16.70;56.60;;;;;;6332110;22;20333;-72
2022/05/08 03:57:48;;;;;;;4.72;1.00;;;16.70;57.60;;;;;;6304526;22;20065;-72
2022/05/08 04:00:16;;;;;;;1.98;0.98;;;16.60;58.80;;;;;;6305022;22;20310;-71
2022/05/08 04:02:43;;;;;;;2.88;0.88;;;16.70;58.10;;;;;;6332671;22;20363;-71
2022/05/08 04:05:11;;;;;;;1.83;1.02;;;16.70;58.50;;;;;;6253747;22;20050;-71
2022/05/08 04:07:38;;;;;;;1.35;0.70;;;16.70;57.80;;;;;;6280789;22;19999;-72
2022/05/08 04:10:07;;;;;;;2.95;0.90;;;16.70;57.20;;;;;;6333662;22;20014;-72
2022/05/08 04:12:35;;;;;;;2.28;0.85;;;16.70;57.60;;;;;;6280207;22;20013;-71
2022/05/08 04:15:02;;;;;;;1.65;0.88;;;16.70;57.50;;;;;;6279041;22;20007;-72
2022/05/08 04:17:30;;;;;;;2.15;0.73;;;16.70;58.60;;;;;;6279375;22;20671;-71
2022/05/08 04:19:57;;;;;;;1.23;0.73;;;16.70;57.40;;;;;;6333881;22;20499;-72
2022/05/08 04:25:10;;;;;;;1.50;0.68;;;16.70;58.50;;;;;;6329457;22;20077;-71
2022/05/08 04:27:38;;;;;;;4.28;0.82;;;16.70;57.90;;;;;;6332989;22;20003;-73
2022/05/08 04:30:06;;;;;;;1.92;1.00;;;16.70;58.50;;;;;;6305291;22;20006;-72
2022/05/08 04:32:33;;;;;;;3.03;0.82;;;16.70;58.50;;;;;;6305501;22;20007;-71
2022/05/08 04:35:00;;;;;;;8.48;1.60;;;16.80;58.20;;;;;;6333079;22;19999;-70
2022/05/08 04:37:27;;;;;;;2.05;1.10;;;16.70;60.10;;;;;;6333341;22;20040;-68
2022/05/08 04:39:55;;;;;;;1.70;0.80;;;16.80;57.60;;;;;;6333199;22;20006;-67
2022/05/08 04:42:22;;;;;;;1.92;1.13;;;16.80;58.50;;;;;;6333501;22;20009;-67
2022/05/08 04:44:49;;;;;;;1.67;0.90;;;16.80;58.90;;;;;;6332875;22;20013;-67
2022/05/08 04:47:16;;;;;;;1.92;0.70;;;16.80;58.90;;;;;;6332736;22;20421;-67
2022/05/08 04:49:43;;;;;;;2.78;0.90;;;16.80;58.70;;;;;;6333222;22;20423;-68
2022/05/08 04:52:10;;;;;;;5.00;1.25;;;16.80;57.90;;;;;;6331498;22;20009;-67
2022/05/08 04:54:37;;;;;;;1.88;1.00;;;16.80;59.30;;;;;;6333378;22;20007;-68
2022/05/08 04:57:05;;;;;;;2.88;1.00;;;16.80;58.30;;;;;;6332700;22;20514;-68
2022/05/08 04:59:32;;;;;;;5.35;1.10;;;16.80;58.50;;;;;;6332087;22;20368;-68
2022/05/08 05:01:59;;;;;;;1.40;0.47;;;16.80;59.40;;;;;;6333365;22;20342;-68
2022/05/08 05:04:26;;;;;;;2.65;0.68;;;16.80;58.40;;;;;;6333672;22;20093;-67
2022/05/08 05:06:54;;;;;;;3.33;0.98;;;16.80;58.30;;;;;;6305739;22;20023;-67
2022/05/08 05:09:21;;;;;;;6.30;1.60;;;16.80;58.80;;;;;;6333117;22;20003;-68
2022/05/08 05:11:48;;;;;;;5.13;1.38;;;16.90;59.10;;;;;;6333455;22;20444;-68
2022/05/08 05:14:15;;;;;;;3.58;1.30;;;16.90;59.70;;;;;;6333319;22;20006;-69
2022/05/08 05:16:43;;;;;;;3.03;0.70;;;16.90;60.50;;;;;;6333035;22;20007;-69
2022/05/08 05:19:11;;;;;;;3.15;0.77;;;16.90;58.50;;;;;;6333336;22;20479;-69
2022/05/08 05:21:38;;;;;;;2.80;0.82;;;16.80;59.00;;;;;;6278437;22;20003;-68
2022/05/08 05:24:05;;;;;;;1.45;0.60;;;16.80;59.70;;;;;;6276665;22;20018;-68
2022/05/08 05:26:32;;;;;;;3.60;0.98;;;16.80;59.20;;;;;;6305656;22;20003;-68
2022/05/08 05:29:00;;;;;;;1.58;0.80;;;16.80;59.10;;;;;;6333134;22;20003;-68
2022/05/08 05:31:27;;;;;;;2.00;0.85;;;16.90;58.30;;;;;;6332118;22;20006;-67
2022/05/08 05:33:54;;;;;;;2.92;1.00;;;16.90;59.20;;;;;;6332288;22;20041;-68
2022/05/08 05:36:21;;;;;;;2.72;1.00;;;17.00;58.90;;;;;;6333581;22;20007;-69
2022/05/08 05:38:49;;;;;;;3.08;1.05;;;16.90;60.00;;;;;;6305739;22;20079;-69
2022/05/08 05:41:16;;;;;;;2.65;0.75;;;16.90;59.20;;;;;;6335061;22;20391;-68
2022/05/08 05:43:44;;;;;;;2.78;1.20;;;17.00;59.20;;;;;;6307044;22;20326;-74
2022/05/08 05:48:56;;;;;;;4.45;1.10;;;16.90;60.30;;;;;;6311249;22;20097;-71
2022/05/08 05:51:23;;;;;;;4.72;1.17;;;16.90;60.40;;;;;;6305272;22;20002;-71
2022/05/08 05:53:51;;;;;;;1.35;0.85;;;16.90;60.80;;;;;;6280379;22;20003;-69
2022/05/08 05:56:18;;;;;;;1.98;0.85;;;16.90;60.30;;;;;;6328163;22;20330;-69
2022/05/08 05:58:45;;;;;;;1.35;0.55;;;16.90;59.70;;;;;;6332371;22;20013;-69
2022/05/08 06:01:12;;;;;;;2.08;0.80;;;16.90;59.20;;;;;;6333892;22;20031;-70
2022/05/08 06:03:39;;;;;;;0.93;0.50;;;16.90;59.20;;;;;;6333419;22;20364;-70
2022/05/08 06:06:06;;;;;;;2.22;0.65;;;17.00;59.10;;;;;;6305946;22;20081;-70
2022/05/08 06:08:34;;;;;;;7.45;1.10;;;17.00;58.10;;;;;;6333550;22;20026;-70
2022/05/08 06:11:01;;;;;;;4.50;0.98;;;17.00;59.40;;;;;;6279822;22;20489;-70
2022/05/08 06:13:28;;;;;;;0.73;0.70;;;16.90;59.90;;;;;;6306263;22;20056;-70
2022/05/08 06:15:55;;;;;;;1.85;0.80;;;17.00;59.40;;;;;;6306091;22;20048;-69
2022/05/08 06:18:22;;;;;;;0.88;0.70;;;17.00;60.00;;;;;;6280258;22;20007;-69
2022/05/08 06:20:49;;;;;;;0.80;0.57;;;17.00;59.40;;;;;;6332810;22;20003;-68
2022/05/08 06:23:17;;;;;;;4.55;0.82;;;16.90;59.60;;;;;;6303970;22;20682;-69
2022/05/08 06:25:44;;;;;;;2.08;0.80;;;16.90;59.50;;;;;;6280543;22;20007;-68
2022/05/08 06:28:11;;;;;;;1.13;0.70;;;16.90;59.50;;;;;;6305618;22;20386;-67
2022/05/08 06:30:38;;;;;;;1.23;0.75;;;16.90;59.70;;;;;;6305770;22;20003;-66
2022/05/08 06:33:06;;;;;;;0.85;0.60;;;16.90;59.80;;;;;;6305788;22;20041;-68
2022/05/08 06:35:33;;;;;;;2.03;0.80;;;16.80;59.30;;;;;;6333524;22;20002;-69
2022/05/08 06:38:00;;;;;;;1.45;0.60;;;16.90;59.10;;;;;;6304606;22;20010;-70
2022/05/08 06:40:28;;;;;;;1.65;0.93;;;16.90;58.50;;;;;;6304330;22;20006;-68
2022/05/08 06:42:55;;;;;;;3.10;1.00;;;16.90;59.40;;;;;;6304437;22;20010;-72
2022/05/08 06:45:25;;;;;;;4.38;1.30;;;16.90;59.70;;;;;;6279619;22;20091;-71
2022/05/08 06:47:52;;;;;;;2.35;1.20;;;16.80;59.70;;;;;;6333060;22;20018;-71
2022/05/08 06:50:19;;;;;;;1.70;0.90;;;16.90;59.40;;;;;;6306232;22;20003;-70
2022/05/08 06:52:47;;;;;;;1.63;0.70;;;16.80;59.70;;;;;;6302458;22;20003;-70
2022/05/08 06:55:14;;;;;;;1.58;0.90;;;16.80;59.30;;;;;;6332224;22;20021;-69
2022/05/08 06:57:42;;;;;;;1.25;1.00;;;16.80;59.00;;;;;;6333482;22;20014;-70
2022/05/08 07:02:54;;;;;;;3.30;0.82;;;16.70;59.40;;;;;;6333089;22;20625;-72
2022/05/08 07:05:22;;;;;;;1.33;0.90;;;16.80;59.00;;;;;;6333092;22;20023;-70
2022/05/08 07:07:49;;;;;;;2.08;0.90;;;16.70;58.90;;;;;;6332847;22;19995;-70
2022/05/08 07:10:16;;;;;;;3.63;0.90;;;16.70;59.00;;;;;;6306490;22;20003;-69
2022/05/08 07:12:43;;;;;;;2.72;1.00;;;16.80;59.20;;;;;;6332657;22;20003;-69
2022/05/08 07:15:11;;;;;;;2.92;1.20;;;16.80;59.10;;;;;;6305510;22;20007;-69
2022/05/08 07:17:38;;;;;;;2.80;1.80;;;16.70;59.30;;;;;;6333066;22;20010;-70
2022/05/08 07:20:06;;;;;;;2.78;1.60;;;16.70;59.30;;;;;;6330591;22;20087;-71
2022/05/08 07:22:35;;;;;;;8.57;1.80;;;16.70;59.00;;;;;;6279867;22;20026;-71
2022/05/08 07:25:02;;;;;;;1.65;1.10;;;16.70;59.00;;;;;;6330666;22;20087;-70
2022/05/08 07:27:32;;;;;;;5.82;1.58;;;16.70;58.90;;;;;;6332785;22;20052;-67
2022/05/08 07:29:59;;;;;;;5.05;1.15;;;16.80;59.40;;;;;;6281148;22;20015;-69
2022/05/08 07:32:26;;;;;;;3.15;1.30;;;16.70;60.00;;;;;;6333364;22;20003;-67
2022/05/08 07:37:39;;;;;;;6.60;1.52;;;16.70;61.20;;;;;;6332069;22;20069;-69
2022/05/08 07:40:07;;;;;;;7.15;1.70;;;16.60;61.60;;;;;;6305258;22;20006;-69
2022/05/08 07:42:34;;;;;;;6.50;1.60;;;16.50;62.00;;;;;;6305471;22;20017;-70
2022/05/08 07:45:01;;;;;;;2.63;1.83;;;16.50;62.40;;;;;;6305455;22;20040;-70
2022/05/08 07:47:28;;;;;;;3.30;1.65;;;16.40;62.30;;;;;;6331755;22;19999;-72
2022/05/08 07:49:56;;;;;;;5.60;2.22;;;16.40;62.50;;;;;;6332780;22;20057;-71
2022/05/08 07:52:23;;;;;;;3.47;2.10;;;16.40;62.80;;;;;;6333161;22;20007;-71
2022/05/08 07:54:50;;;;;;;6.65;2.08;;;16.30;63.40;;;;;;6280103;22;20007;-71
2022/05/08 07:57:17;;;;;;;4.10;1.90;;;16.40;63.20;;;;;;6333626;22;19995;-70
2022/05/08 07:59:44;;;;;;;3.85;2.08;;;16.30;63.30;;;;;;6333405;22;20002;-71
2022/05/08 08:02:11;;;;;;;2.83;1.85;;;16.30;63.70;;;;;;6305058;22;20079;-70
2022/05/08 08:04:39;;;;;;;7.22;2.35;;;16.30;63.90;;;;;;6332124;22;20019;-72
2022/05/08 08:07:06;;;;;;;5.60;2.47;;;16.20;64.20;;;;;;6332100;22;20038;-71
2022/05/08 08:09:33;;;;;;;9.77;3.65;;;16.20;64.20;;;;;;6332844;22;20022;-72
2022/05/08 08:12:00;;;;;;;8.20;3.40;;;16.20;64.70;;;;;;6279424;22;20743;-71
2022/05/08 08:14:29;;;;;;;6.28;3.63;;;16.20;64.70;;;;;;6304221;22;20007;-72
2022/05/08 08:16:56;;;;;;;6.35;3.53;;;16.20;65.20;;;;;;6279205;22;20498;-71
2022/05/08 08:19:23;;;;;;;6.53;3.40;;;16.10;65.70;;;;;;6279067;22;20065;-73
2022/05/08 08:21:52;;;;;;;7.55;3.40;;;16.10;65.70;;;;;;6305668;22;19995;-73
2022/05/08 08:24:19;;;;;;;6.65;3.13;;;16.10;65.90;;;;;;6302976;22;20423;-69
2022/05/08 08:26:46;;;;;;;7.40;3.83;;;16.10;66.90;;;;;;6302611;22;20316;-71
2022/05/08 08:29:14;;;;;;;7.50;3.47;;;16.00;66.70;;;;;;6333023;22;20363;-70
2022/05/08 08:31:41;;;;;;;5.20;3.22;;;16.00;67.20;;;;;;6278929;22;20406;-70
2022/05/08 08:34:08;;;;;;;5.50;3.20;;;16.00;67.50;;;;;;6329475;22;20356;-70
2022/05/08 08:36:36;;;;;;;4.03;2.90;;;16.00;67.20;;;;;;6332217;22;20022;-72
2022/05/08 08:39:03;;;;;;;6.35;3.00;;;16.00;67.20;;;;;;6330495;22;20033;-73
2022/05/08 08:41:35;;;;;;;4.07;2.55;;;16.00;68.50;;;;;;6330529;22;20330;-70
2022/05/08 08:49:47;;;;;;;3.75;2.17;;;15.90;67.40;;;;;;6308657;22;20017;-71
2022/05/08 08:52:14;;;;;;;9.57;3.28;;;15.90;67.60;;;;;;6304620;22;20089;-71
2022/05/08 08:54:42;;;;;;;12.32;3.22;;;15.80;67.70;;;;;;6279691;22;20006;-71
2022/05/08 08:57:09;;;;;;;14.95;5.90;;;15.90;67.30;;;;;;6253809;22;20010;-71
2022/05/08 08:59:36;;;;;;;13.02;5.75;;;15.80;67.40;;;;;;6323886;22;20006;-70
2022/05/08 09:02:03;;;;;;;7.65;4.18;;;15.80;67.40;;;;;;6277653;22;20473;-70
2022/05/08 09:04:32;;;;;;;9.90;5.30;;;15.80;67.00;;;;;;6302409;22;20011;-73
2022/05/08 09:07:00;;;;;;;9.82;5.60;;;15.70;68.00;;;;;;6278779;22;20066;-73
2022/05/08 09:09:28;;;;;;;9.93;5.82;;;15.70;67.90;;;;;;6331529;22;20011;-74
2022/05/08 09:11:56;;;;;;;11.80;5.97;;;15.70;68.20;;;;;;6332604;22;20409;-74
2022/05/08 09:14:33;;;;;;;9.80;5.22;;;15.70;68.30;;;;;;6332271;22;20392;-74
2022/05/08 09:17:07;;;;;;;10.82;6.32;;;15.70;68.70;;;;;;6332762;22;19999;-73
2022/05/08 09:19:37;;;;;;;12.88;6.47;;;15.60;68.80;;;;;;6332596;22;20003;-74
2022/05/08 09:22:05;;;;;;;12.13;6.10;;;15.60;69.10;;;;;;6332874;22;20307;-73
2022/05/08 09:24:33;;;;;;;10.85;6.15;;;15.60;69.00;;;;;;6330063;22;20028;-74
2022/05/08 09:27:18;;;;;;;9.43;5.32;;;15.60;69.60;;;;;;6332086;22;20007;-73
2022/05/08 09:29:45;;;;;;;14.77;5.80;;;15.50;69.10;;;;;;6305471;22;20030;-73
2022/05/08 09:32:35;;;;;;;13.20;6.25;;;15.50;68.90;;;;;;6332110;22;20003;-73
2022/05/08 09:35:02;;;;;;;15.33;6.77;;;15.50;69.10;;;;;;6331901;22;20011;-73
2022/05/08 09:37:30;;;;;;;11.65;6.30;;;15.50;69.50;;;;;;6332312;22;20007;-73
2022/05/08 09:40:19;;;;;;;15.10;6.05;;;15.50;69.30;;;;;;6332844;22;19999;-73
2022/05/08 09:42:47;;;;;;;16.35;5.45;;;15.50;69.50;;;;;;6304839;22;20322;-73
2022/05/08 09:45:14;;;;;;;15.93;5.90;;;15.50;69.10;;;;;;6304647;22;20034;-74
2022/05/08 09:47:59;;;;;;;16.02;5.90;;;15.50;69.30;;;;;;6292152;22;20442;-73
2022/05/08 09:50:26;;;;;;;10.57;5.55;;;15.50;69.40;;;;;;6271501;22;20286;-74
2022/05/08 09:52:53;;;;;;;12.38;5.60;;;15.50;70.00;;;;;;6276049;22;20077;-74
2022/05/08 09:55:20;;;;;;;10.88;4.85;;;15.50;69.50;;;;;;6274915;22;19998;-72
2022/05/08 09:57:48;;;;;;;8.13;5.03;;;15.50;69.40;;;;;;6329883;22;20062;-72
2022/05/08 10:00:16;;;;;;;12.50;6.57;;;15.50;69.50;;;;;;6331043;22;20449;-73
2022/05/08 10:02:43;;;;;;;9.73;5.32;;;15.50;69.50;;;;;;6325009;22;20010;-63
2022/05/08 10:05:10;;;;;;;12.18;6.20;;;15.40;69.70;;;;;;6328981;22;20412;-64
2022/05/08 10:07:38;;;;;;;15.80;6.20;;;15.40;70.90;;;;;;6276476;22;19999;-63
2022/05/08 10:15:43;;;;;;;9.48;4.82;;;15.30;73.00;;;;;;6329943;22;20018;-65
2022/05/08 10:18:23;;;;;;;9.23;4.85;;;15.30;73.70;;;;;;6328977;22;20112;-66
2022/05/08 10:21:22;;;;;;;10.73;4.67;;;15.30;74.30;;;;;;6330604;22;20082;-65
2022/05/08 10:23:50;;;;;;;12.80;5.43;;;15.30;74.60;;;;;;6238005;22;20259;-67
2022/05/08 10:26:18;;;;;;;10.38;5.05;;;15.20;74.10;;;;;;6325528;22;20086;-67
2022/05/08 10:29:15;;;;;;;13.32;4.85;;;15.20;74.50;;;;;;6331453;22;20009;-66
2022/05/08 10:31:47;;;;;;;10.73;5.45;;;15.20;75.00;;;;;;6331260;22;20100;-68
2022/05/08 10:34:15;;;;;;;10.35;5.63;;;15.10;75.20;;;;;;6335190;22;20006;-68
2022/05/08 10:37:13;;;;;;;13.30;5.30;;;15.10;75.50;;;;;;6332173;22;20157;-66
2022/05/08 10:39:47;;;;;;;11.75;5.45;;;15.00;75.70;;;;;;6331649;22;20070;-67
2022/05/08 10:42:32;;;;;;;11.25;5.07;;;15.00;75.70;;;;;;6304692;22;20018;-66
2022/05/08 10:45:00;;;;;;;12.27;5.15;;;15.00;76.00;;;;;;6331069;22;20330;-67
2022/05/08 10:47:43;;;;;;;11.88;5.10;;;15.00;76.00;;;;;;6331118;22;19995;-67
2022/05/08 10:50:11;;;;;;;10.57;5.22;;;15.00;76.50;;;;;;6332245;22;20076;-67
2022/05/08 10:52:42;;;;;;;11.02;5.28;;;15.00;76.70;;;;;;6304089;22;20014;-68
2022/05/08 10:55:15;;;;;;;8.88;5.07;;;15.00;77.20;;;;;;6332090;22;20075;-67
2022/05/08 10:57:46;;;;;;;11.77;5.20;;;15.00;77.70;;;;;;6305965;22;20359;-68
2022/05/08 11:00:17;;;;;;;11.85;5.63;;;14.90;77.70;;;;;;6330707;22;20018;-66
2022/05/08 11:03:10;;;;;;;12.45;4.78;;;14.90;77.90;;;;;;6332261;22;20034;-66
2022/05/08 11:05:38;;;;;;;10.88;4.78;;;14.80;78.20;;;;;;6326364;22;20337;-67
2022/05/08 11:08:13;;;;;;;13.65;5.78;;;14.80;78.40;;;;;;6331249;22;20006;-66
2022/05/08 11:10:43;;;;;;;14.77;4.90;;;14.80;78.60;;;;;;6304407;22;20079;-66
2022/05/08 11:13:12;;;;;;;12.63;5.28;;;14.80;79.00;;;;;;6303960;22;20574;-68
2022/05/08 11:15:46;;;;;;;8.05;4.82;;;14.80;79.30;;;;;;6303784;22;20546;-67
2022/05/08 11:18:24;;;;;;;8.98;5.15;;;14.80;79.40;;;;;;6331071;22;20003;-67
2022/05/08 11:20:59;;;;;;;10.95;4.70;;;14.80;79.50;;;;;;6331953;22;20387;-67
2022/05/08 11:23:44;;;;;;;11.93;5.00;;;14.80;79.70;;;;;;6304934;22;20003;-67
2022/05/08 11:26:12;;;;;;;10.02;5.03;;;14.80;80.20;;;;;;6331199;22;20071;-68
2022/05/08 11:28:57;;;;;;;9.95;5.22;;;14.80;80.60;;;;;;6329468;22;20003;-67
2022/05/08 11:31:25;;;;;;;8.00;4.63;;;14.80;80.70;;;;;;6281657;22;20007;-67
2022/05/08 11:36:40;;;;;;;9.05;5.30;;;14.80;80.80;;;;;;6331234;22;20014;-67
2022/05/08 11:39:07;;;;;;;9.50;5.07;;;14.80;80.70;;;;;;6304425;22;20006;-67
2022/05/08 11:41:36;;;;;;;9.07;4.70;;;14.80;80.80;;;;;;6331390;22;20010;-67
2022/05/08 11:44:16;;;;;;;9.50;5.40;;;14.80;80.80;;;;;;6330780;22;20105;-66
2022/05/08 11:46:57;;;;;;;10.38;5.75;;;14.80;81.40;;;;;;6307847;22;20370;-66
2022/05/08 11:49:29;;;;;;;13.48;8.07;;;14.80;81.30;;;;;;6331481;22;20030;-66
2022/05/08 11:51:56;;;;;;;20.00;8.88;;;14.80;81.20;;;;;;6331463;22;20003;-67
2022/05/08 11:54:27;;;;;;;15.32;7.57;;;14.90;81.30;;;;;;6332230;22;20046;-67
2022/05/08 11:57:13;;;;;;;13.95;6.75;;;14.90;81.10;;;;;;6307258;22;20429;-67
2022/05/08 11:59:41;;;;;;;9.15;5.00;;;15.00;81.00;;;;;;6332940;22;20003;-67
2022/05/08 12:02:09;;;;;;;14.02;5.38;;;15.00;80.70;;;;;;6304310;22;20468;-67
2022/05/08 12:04:37;;;;;;;11.32;4.75;;;15.00;80.40;;;;;;6331151;22;20446;-67
2022/05/08 12:07:07;;;;;;;8.63;4.70;;;15.00;80.20;;;;;;6332210;22;19999;-66
2022/05/08 12:09:47;;;;;;;9.40;4.47;;;15.00;79.90;;;;;;6331892;22;20014;-66
2022/05/08 12:12:41;;;;;;;8.85;4.75;;;15.00;80.00;;;;;;6330811;22;20006;-66
2022/05/08 12:15:09;;;;;;;6.35;4.30;;;15.00;80.00;;;;;;6326409;22;20018;-66
2022/05/08 12:17:42;;;;;;;8.93;4.60;;;15.00;79.80;;;;;;6331217;22;20040;-66
2022/05/08 12:20:17;;;;;;;9.02;4.65;;;15.00;78.80;;;;;;6331352;22;20014;-66
2022/05/08 12:22:44;;;;;;;8.38;4.03;;;15.00;78.60;;;;;;6332076;22;20128;-66
2022/05/08 12:25:14;;;;;;;7.47;4.80;;;15.00;77.10;;;;;;6269497;22;20026;-66
2022/05/08 12:27:41;;;;;;;9.05;4.50;;;15.00;76.60;;;;;;6301894;22;20038;-66
2022/05/08 12:30:11;;;;;;;9.52;3.95;;;14.90;76.40;;;;;;6331384;22;20015;-66
2022/05/08 12:32:39;;;;;;;13.60;4.15;;;14.90;76.50;;;;;;6331654;22;20474;-66
2022/05/08 12:35:07;;;;;;;7.28;4.10;;;14.90;76.20;;;;;;6332034;22;20013;-66
2022/05/08 12:37:34;;;;;;;7.80;4.22;;;14.80;76.30;;;;;;6304235;22;20061;-66
2022/05/08 12:40:01;;;;;;;8.70;4.65;;;14.80;76.00;;;;;;6332147;22;20007;-66
2022/05/08 12:42:29;;;;;;;13.05;4.75;;;14.70;76.00;;;;;;6331716;22;20045;-66
2022/05/08 12:44:56;;;;;;;9.05;4.10;;;14.80;75.80;;;;;;6295865;22;20181;-66
2022/05/08 12:47:23;;;;;;;8.98;4.00;;;14.80;75.60;;;;;;6330690;22;20002;-65
2022/05/08 12:49:50;;;;;;;8.75;4.40;;;14.80;75.70;;;;;;6331375;22;20094;-65
2022/05/08 12:52:18;;;;;;;13.77;4.03;;;14.80;76.20;;;;;;6336213;22;20482;-66
2022/05/08 12:54:45;;;;;;;7.70;3.80;;;14.80;75.50;;;;;;6335411;22;20364;-66
2022/05/08 12:59:42;;;;;;;8.25;3.80;;;14.80;75.50;;;;;;6308787;22;20026;-66
2022/05/08 12:59:59;;;;;;;8.73;3.97;;;14.80;75.40;;;;;;6311852;22;20065;-66
2022/05/08 13:02:27;;;;;;;8.35;3.83;;;14.80;75.30;;;;;;6335765;22;20417;-65
2022/05/08 13:04:54;;;;;;;7.00;3.70;;;14.80;75.10;;;;;;6335977;22;20010;-66
2022/05/08 13:07:21;;;;;;;11.43;3.90;;;14.80;75.70;;;;;;6335197;22;19999;-66
2022/05/08 13:09:49;;;;;;;5.60;3.47;;;14.80;76.20;;;;;;6334392;22;20014;-66
2022/05/08 13:12:16;;;;;;;6.15;3.65;;;14.70;76.60;;;;;;6308085;22;20002;-65
2022/05/08 13:14:43;;;;;;;4.90;2.80;;;14.70;76.90;;;;;;6273644;22;20014;-64
2022/05/08 13:17:10;;;;;;;5.07;2.92;;;14.70;77.00;;;;;;6307910;22;20038;-65
2022/05/08 13:19:38;;;;;;;7.03;2.90;;;14.70;77.00;;;;;;6334886;22;20003;-65
2022/05/08 13:22:06;;;;;;;4.60;2.90;;;14.60;76.70;;;;;;6336095;22;19998;-66
2022/05/08 13:24:34;;;;;;;8.80;2.85;;;14.60;77.00;;;;;;6282531;22;19998;-65
2022/05/08 13:27:02;;;;;;;3.40;2.50;;;14.60;77.40;;;;;;6308589;22;19999;-66